< Typhoon 199513 1995 Season Typhoon 199515 >
Typhoon 199514 (RYAN)
General InformationTrack Information on Google MapsDetailed Wind InformationList of All Images || Disaster Info.ResourceGoogle EarthGE AnimationAtom FeedGeoJSON
Detalied Best Track (Time Zone = UTC)
Year Month Day Hour Lat. Long. Pressure (hPa) Wind (kt) Class Image Chart
1995 9 15 00 15.0 116.0 1002 0 2 Image Chart
1995 9 15 06 15.0 116.0 1000 0 2 Image Chart
1995 9 15 12 15.0 115.5 1000 0 2 Image Chart
1995 9 15 18 14.5 114.8 1000 0 2 Image Chart
1995 9 16 00 13.9 114.2 1000 0 2 Image Chart
1995 9 16 06 13.7 113.7 998 35 3 Image Chart
1995 9 16 12 14.0 113.5 994 40 3 Image Chart
1995 9 16 18 14.2 114.0 992 45 3 Image Chart
1995 9 17 00 14.1 114.5 992 45 3 Image Chart
1995 9 17 06 14.5 114.6 992 45 3 Image Chart
1995 9 17 12 14.7 114.6 990 45 3 Image Chart
1995 9 17 18 14.8 114.4 990 45 3 Image Chart
1995 9 18 00 14.7 114.1 985 50 4 Image Chart
1995 9 18 06 14.6 113.7 980 55 4 Image Chart
1995 9 18 12 14.7 113.2 980 55 4 Image Chart
1995 9 18 18 14.8 112.8 980 55 4 Image Chart
1995 9 19 00 15.0 112.7 980 55 4 Image Chart
1995 9 19 06 15.4 112.5 975 60 4 Image Chart
1995 9 19 12 16.2 112.4 970 65 5 Image Chart
1995 9 19 18 16.8 112.4 965 70 5 Image Chart
1995 9 20 00 17.5 112.6 965 70 5 Image Chart
1995 9 20 06 18.0 113.2 955 75 5 Image Chart
1995 9 20 12 18.4 114.2 950 80 5 Image Chart
1995 9 20 18 18.7 115.2 950 80 5 Image Chart
1995 9 21 00 19.1 116.2 945 85 5 Image Chart
1995 9 21 06 19.8 117.5 940 85 5 Image Chart
1995 9 21 12 20.4 118.6 940 85 5 Image Chart
1995 9 21 18 20.8 119.7 940 85 5 Image Chart
1995 9 22 00 21.4 120.9 940 85 5 Image Chart
1995 9 22 03 21.9 121.5 945 85 5 Image Chart
1995 9 22 06 22.4 122.3 945 85 5 Image Chart
1995 9 22 09 23.1 123.1 950 80 5 Image Chart
1995 9 22 12 23.6 123.5 950 80 5 Image Chart
1995 9 22 15 24.3 124.1 955 75 5 Image Chart
1995 9 22 18 24.9 124.7 955 75 5 Image Chart
1995 9 22 21 25.7 125.3 960 75 5 Image Chart
1995 9 23 00 26.6 125.9 960 75 5 Image Chart
1995 9 23 03 27.4 126.5 965 70 5 Image Chart
1995 9 23 06 28.4 127.4 965 70 5 Image Chart
1995 9 23 09 29.4 128.2 970 65 5 Image Chart
1995 9 23 12 30.5 129.2 970 65 5 Image Chart
1995 9 23 15 31.8 130.2 975 65 5 Image Chart
1995 9 23 18 33.3 131.4 985 60 4 Image Chart
1995 9 23 19 33.9 131.9 985 60 4 Image Chart
1995 9 23 21 35.2 132.9 992 55 4 Image Chart
1995 9 24 00 36.9 134.2 994 35 3 Image Chart
1995 9 24 03 38.7 136.1 996 35 3 Image Chart
1995 9 24 06 39.8 138.0 998 35 3 Image Chart
1995 9 24 09 40.5 139.8 1000 0 6 Image Chart
1995 9 24 12 41.0 142.0 1002 0 6 Image Chart
1995 9 24 18 42.0 146.0 1002 0 6 Image Chart
1995 9 25 00 42.5 149.0 1002 0 6 Image Chart
1995 9 25 06 43.0 152.5 1000 0 6 Image Chart
1995 9 25 12 44.0 156.5 998 0 6 Image Chart
1995 9 25 18 45.0 161.0 998 0 6 Image Chart
Japan Meteorological Agency Best Track Data | Correction Date : 1996-01-19
< Typhoon 199513 1995 Season Typhoon 199515 >

Help